Shelly, Minnesota
Current Conditions -  °F | °C
As of 8:54 PM on Wednesday 26 Nov 2014 (Local Time) from KCKN Reporting Station
Clear Clear  
Wind Chill: -21°   Ceiling: Unl
Heat Index: -8°   Visibility: 10mi
Dew Point: -11°   Wind: 6mph
Humidity: 84%   Direction: 10°N
Pressure: 30.54"   Gusts: NA
Location:  47.46°N, 96.82°W
Report Text: KCKN 270254Z AUTO 01005KT 10SM CLR M22/M24 A3054 RMK AO2
Loading
Personal Weather Stations






























Interactive Weather Map New forecast layout! Learn more

10-Day Weather Forecast

Advertisements
Track Severe Weather on mobile